createdAt,value
2023-04-06T00:00:10.146Z,50.88
2023-04-06T00:02:37.329Z,52.01
2023-04-06T00:05:04.632Z,51.86
2023-04-06T00:07:31.322Z,52.08
2023-04-06T00:09:57.975Z,52.38
2023-04-06T00:12:24.515Z,52.19
2023-04-06T00:14:51.395Z,52.19
2023-04-06T00:17:17.932Z,52.22
2023-04-06T00:19:44.414Z,52.62
2023-04-06T00:22:11.049Z,52.11
2023-04-06T00:24:37.578Z,51.69
2023-04-06T00:27:04.439Z,52.33
2023-04-06T00:29:30.984Z,51.54
2023-04-06T00:31:57.544Z,50.63
2023-04-06T00:34:24.129Z,51.29
2023-04-06T00:36:51.064Z,51.95
2023-04-06T00:39:19.738Z,51.14
2023-04-06T00:41:51.240Z,50.67
2023-04-06T00:44:17.826Z,50.74
2023-04-06T00:46:44.459Z,50.92
2023-04-06T00:49:11.121Z,50.81
2023-04-06T00:51:37.942Z,51.39
2023-04-06T00:54:04.627Z,51.80
2023-04-06T00:56:31.200Z,51.10
2023-04-06T00:58:57.707Z,51.25
2023-04-06T01:01:25.129Z,51.31
2023-04-06T01:03:52.482Z,51.67
2023-04-06T01:06:19.027Z,51.89
2023-04-06T01:08:45.617Z,51.73
2023-04-06T01:11:12.150Z,52.43
2023-04-06T01:13:38.691Z,51.65
2023-04-06T01:16:05.823Z,51.89
2023-04-06T01:18:32.519Z,51.48
2023-04-06T01:21:00.551Z,52.15
2023-04-06T01:23:27.171Z,51.62
2023-04-06T01:25:53.725Z,52.13
2023-04-06T01:28:20.462Z,51.95
2023-04-06T01:30:47.378Z,52.10
2023-04-06T01:33:14.072Z,52.02
2023-04-06T01:35:40.806Z,52.18
2023-04-06T01:38:07.374Z,51.90
2023-04-06T01:40:33.941Z,51.91
2023-04-06T01:43:00.447Z,52.04
2023-04-06T01:45:27.068Z,52.61
2023-04-06T01:47:53.541Z,52.57
2023-04-06T01:50:20.818Z,52.69
2023-04-06T01:52:47.460Z,53.43
2023-04-06T01:55:14.059Z,53.31
2023-04-06T01:57:40.568Z,53.97
2023-04-06T02:00:07.790Z,53.98
2023-04-06T02:02:34.369Z,53.80
2023-04-06T02:05:01.052Z,54.06
2023-04-06T02:07:27.596Z,53.94
2023-04-06T02:09:56.692Z,53.98
2023-04-06T02:12:23.385Z,54.35
2023-04-06T02:14:49.902Z,54.72
2023-04-06T02:17:16.536Z,55.42
2023-04-06T02:19:43.159Z,55.24
2023-04-06T02:22:10.510Z,55.39
2023-04-06T02:24:37.508Z,55.64
2023-04-06T02:27:04.345Z,55.91
2023-04-06T02:29:30.922Z,55.90
2023-04-06T02:31:57.418Z,55.69
2023-04-06T02:34:23.922Z,55.66
2023-04-06T02:36:50.695Z,56.09
2023-04-06T02:39:18.581Z,55.93
2023-04-06T02:41:45.608Z,55.83
2023-04-06T02:44:12.204Z,56.68
2023-04-06T02:46:38.765Z,57.12
2023-04-06T02:49:05.457Z,56.94
2023-04-06T02:51:32.062Z,56.58
2023-04-06T02:53:58.555Z,57.13
2023-04-06T02:56:25.052Z,57.46
2023-04-06T02:58:51.640Z,57.01
2023-04-06T03:01:18.231Z,57.17
2023-04-06T03:03:44.886Z,58.29
2023-04-06T03:06:11.413Z,58.39
2023-04-06T03:08:37.918Z,58.42
2023-04-06T03:11:04.439Z,58.92
2023-04-06T03:13:30.986Z,58.70
2023-04-06T03:15:57.497Z,59.12
2023-04-06T03:18:25.130Z,59.14
2023-04-06T03:20:51.969Z,59.34
2023-04-06T03:23:18.456Z,58.76
2023-04-06T03:25:44.986Z,59.96
2023-04-06T03:28:11.485Z,60.39
2023-04-06T03:30:38.024Z,60.42
2023-04-06T03:33:04.778Z,60.55
2023-04-06T03:35:31.356Z,60.85
2023-04-06T03:37:58.586Z,61.21
2023-04-06T03:40:25.100Z,60.82
2023-04-06T03:42:51.714Z,61.16
2023-04-06T03:45:18.238Z,60.93
2023-04-06T03:47:44.755Z,61.09
2023-04-06T03:50:11.496Z,62.23
2023-04-06T03:52:38.080Z,61.88
2023-04-06T03:55:05.026Z,61.61
2023-04-06T03:57:31.832Z,62.41
2023-04-06T03:59:58.511Z,62.81
2023-04-06T04:02:25.204Z,63.21
2023-04-06T04:04:52.030Z,63.16
2023-04-06T04:07:18.528Z,62.61
2023-04-06T04:09:45.124Z,63.96
2023-04-06T04:12:11.820Z,63.54
2023-04-06T04:14:38.391Z,63.01
2023-04-06T04:17:05.347Z,63.37
2023-04-06T04:19:31.868Z,62.92
2023-04-06T04:21:58.480Z,62.93
2023-04-06T04:24:25.119Z,63.04
2023-04-06T04:26:51.629Z,63.03
2023-04-06T04:29:20.983Z,63.62
2023-04-06T04:31:47.535Z,63.23
2023-04-06T04:34:14.470Z,63.29
2023-04-06T04:36:42.998Z,62.66
2023-04-06T04:39:09.921Z,63.17
2023-04-06T04:41:36.622Z,62.39
2023-04-06T04:44:04.941Z,62.42
2023-04-06T04:46:31.785Z,62.79
2023-04-06T04:48:58.625Z,62.88
2023-04-06T04:51:25.819Z,62.36
2023-04-06T04:53:52.576Z,62.73
2023-04-06T04:56:19.245Z,62.48
2023-04-06T04:58:46.009Z,62.01
2023-04-06T05:01:12.774Z,62.68
2023-04-06T05:03:40.731Z,63.08
2023-04-06T05:06:07.460Z,62.90
2023-04-06T05:08:34.648Z,62.66
2023-04-06T05:11:01.299Z,62.31
2023-04-06T05:13:27.801Z,62.52
2023-04-06T05:15:54.766Z,62.07
2023-04-06T05:18:21.573Z,61.76
2023-04-06T05:20:48.458Z,61.68
2023-04-06T05:23:15.020Z,61.59
2023-04-06T05:25:41.778Z,62.11
2023-04-06T05:28:08.397Z,62.00
2023-04-06T05:30:36.524Z,62.60
2023-04-06T05:33:04.743Z,62.57
2023-04-06T05:35:31.664Z,61.00
2023-04-06T05:37:58.557Z,60.95
2023-04-06T05:40:25.128Z,61.73
2023-04-06T05:42:52.538Z,60.71
2023-04-06T05:45:19.509Z,60.58
2023-04-06T05:47:46.874Z,60.79
2023-04-06T05:50:15.574Z,60.11
2023-04-06T05:52:44.198Z,59.50
2023-04-06T05:55:12.081Z,58.90
2023-04-06T05:57:38.753Z,58.61
2023-04-06T06:00:07.793Z,58.06
2023-04-06T06:02:34.448Z,58.15
2023-04-06T06:05:01.310Z,57.97
2023-04-06T06:07:28.942Z,57.10
2023-04-06T06:09:59.189Z,57.03
2023-04-06T06:12:25.672Z,56.83
2023-04-06T06:14:52.674Z,55.98
2023-04-06T06:17:19.422Z,55.75
2023-04-06T06:19:46.036Z,54.82
2023-04-06T06:22:12.606Z,54.44
2023-04-06T06:24:39.060Z,54.57
2023-04-06T06:27:05.608Z,53.89
2023-04-06T06:29:32.165Z,53.59
2023-04-06T06:31:58.879Z,53.66
2023-04-06T06:34:25.530Z,53.32
2023-04-06T06:36:52.929Z,53.85
2023-04-06T06:39:19.544Z,54.14
2023-04-06T06:41:46.199Z,53.21
2023-04-06T06:44:13.286Z,53.20
2023-04-06T06:46:39.874Z,52.72
2023-04-06T06:49:06.704Z,52.71
2023-04-06T06:51:33.277Z,52.42
2023-04-06T06:53:59.885Z,52.11
2023-04-06T06:56:27.738Z,51.53
2023-04-06T06:58:54.512Z,51.74
2023-04-06T07:01:21.880Z,52.40
2023-04-06T07:03:48.459Z,51.62
2023-04-06T07:06:15.079Z,52.05
2023-04-06T07:08:41.677Z,52.50
2023-04-06T07:11:08.495Z,52.91
2023-04-06T07:13:35.195Z,51.94
2023-04-06T07:16:01.998Z,51.28
2023-04-06T07:18:29.643Z,50.27
2023-04-06T07:20:56.815Z,49.74
2023-04-06T07:23:23.545Z,49.87
2023-04-06T07:25:52.116Z,50.30
2023-04-06T07:28:18.974Z,49.73
2023-04-06T07:30:45.696Z,49.88
2023-04-06T07:33:12.801Z,50.02
2023-04-06T07:35:40.375Z,50.75
2023-04-06T07:38:07.035Z,50.87
2023-04-06T07:40:34.159Z,51.08
2023-04-06T07:43:00.984Z,50.79
2023-04-06T07:45:27.515Z,51.12
2023-04-06T07:47:54.053Z,51.91
2023-04-06T07:50:21.048Z,52.42
2023-04-06T07:52:47.612Z,52.62
2023-04-06T07:55:14.375Z,52.68
2023-04-06T07:57:40.957Z,51.17
2023-04-06T08:00:10.518Z,52.23
2023-04-06T08:02:37.183Z,52.04
2023-04-06T08:05:05.020Z,54.01
2023-04-06T08:07:31.588Z,53.86
2023-04-06T08:09:58.326Z,53.63
2023-04-06T08:12:24.967Z,53.91
2023-04-06T08:14:51.768Z,54.45
2023-04-06T08:17:18.517Z,54.43
2023-04-06T08:19:45.457Z,53.62
2023-04-06T08:22:12.680Z,54.44
2023-04-06T08:24:39.642Z,54.35
2023-04-06T08:27:06.563Z,55.10
2023-04-06T08:29:33.234Z,54.76
2023-04-06T08:31:59.765Z,54.76
2023-04-06T08:34:26.383Z,54.76
2023-04-06T08:36:53.378Z,55.81
2023-04-06T08:39:26.346Z,55.03
2023-04-06T08:41:53.750Z,55.45
2023-04-06T08:44:20.527Z,56.31
2023-04-06T08:46:47.506Z,57.99
2023-04-06T08:49:15.391Z,59.37
2023-04-06T08:51:43.090Z,59.65
2023-04-06T08:54:09.851Z,59.51
2023-04-06T08:56:39.272Z,59.14
2023-04-06T08:59:07.344Z,59.83
2023-04-06T09:01:42.311Z,60.22
2023-04-06T09:04:13.455Z,60.08
2023-04-06T09:06:41.761Z,60.71
2023-04-06T09:09:08.786Z,61.13
2023-04-06T09:11:51.702Z,61.63
2023-04-06T09:14:30.510Z,61.02
2023-04-06T09:16:57.095Z,62.57
2023-04-06T09:19:23.666Z,62.80
2023-04-06T09:21:50.337Z,61.73
2023-04-06T09:24:22.012Z,62.48
2023-04-06T09:26:49.026Z,62.32
2023-04-06T09:29:28.193Z,61.93
2023-04-06T09:32:06.777Z,61.56
2023-04-06T09:34:35.051Z,63.03
2023-04-06T09:37:03.713Z,62.55
2023-04-06T09:39:30.462Z,62.13
2023-04-06T09:41:57.474Z,62.32
2023-04-06T09:44:25.108Z,62.52
2023-04-06T09:47:00.515Z,63.03
2023-04-06T09:49:32.516Z,62.28
2023-04-06T09:52:05.417Z,62.69
2023-04-06T09:54:32.919Z,63.31
2023-04-06T09:57:06.748Z,63.84
2023-04-06T09:59:33.291Z,64.79
2023-04-06T10:02:00.464Z,65.08
2023-04-06T10:04:51.902Z,65.83
2023-04-06T10:07:18.583Z,66.62
2023-04-06T10:09:46.745Z,66.95
2023-04-06T10:12:13.990Z,67.48
2023-04-06T10:14:42.163Z,67.34
2023-04-06T10:17:08.910Z,67.87
2023-04-06T10:19:59.465Z,69.49
2023-04-06T10:22:33.355Z,68.79
2023-04-06T10:24:59.961Z,68.60
2023-04-06T10:27:30.763Z,68.43
2023-04-06T10:30:06.176Z,68.53
2023-04-06T10:32:42.335Z,69.62
2023-04-06T10:35:10.604Z,69.81
2023-04-06T10:37:52.250Z,69.64
2023-04-06T10:40:28.605Z,70.00
2023-04-06T10:42:56.423Z,70.36
2023-04-06T10:45:25.610Z,70.34
2023-04-06T10:47:55.574Z,71.09
2023-04-06T10:50:22.847Z,70.53
2023-04-06T10:53:00.367Z,71.01
2023-04-06T10:55:29.037Z,71.44
2023-04-06T10:57:55.853Z,71.56
2023-04-06T11:00:22.566Z,71.27
2023-04-06T11:02:49.795Z,71.74
2023-04-06T11:05:16.426Z,71.55
2023-04-06T11:07:43.028Z,71.98
2023-04-06T11:10:16.618Z,72.15
2023-04-06T11:12:44.207Z,72.35
2023-04-06T11:15:10.955Z,72.57
2023-04-06T11:17:38.372Z,71.89
2023-04-06T11:20:05.841Z,73.31
2023-04-06T11:22:32.446Z,73.15
2023-04-06T11:27:41.017Z,72.44
2023-04-06T11:30:08.408Z,72.06
2023-04-06T11:32:45.171Z,72.51
2023-04-06T11:35:21.876Z,73.13
2023-04-06T11:37:50.578Z,72.65
2023-04-06T11:40:22.421Z,73.35
2023-04-06T11:42:57.743Z,73.25
2023-04-06T11:45:24.358Z,73.17
2023-04-06T11:48:00.339Z,73.09
2023-04-06T11:50:33.520Z,73.72
2023-04-06T11:53:02.058Z,73.34
2023-04-06T11:55:29.870Z,72.52
2023-04-06T11:57:57.847Z,73.50
2023-04-06T12:00:24.947Z,73.22
2023-04-06T12:02:51.755Z,72.55
2023-04-06T12:05:18.347Z,72.39
2023-04-06T12:07:45.403Z,72.67
2023-04-06T12:10:12.115Z,72.31
2023-04-06T12:12:38.729Z,72.34
2023-04-06T12:15:06.304Z,72.33
2023-04-06T12:17:32.794Z,71.91
2023-04-06T12:20:05.342Z,70.97
2023-04-06T12:22:32.960Z,70.51
2023-04-06T12:24:59.576Z,70.25
2023-04-06T12:27:26.189Z,70.69
2023-04-06T12:29:52.845Z,70.87
2023-04-06T12:32:20.090Z,69.72
2023-04-06T12:34:46.859Z,70.53
2023-04-06T12:37:13.962Z,70.96
2023-04-06T12:39:40.619Z,70.57
2023-04-06T12:42:07.081Z,69.74
2023-04-06T12:44:33.747Z,70.40
2023-04-06T12:47:00.784Z,69.70
2023-04-06T12:49:27.447Z,69.95
2023-04-06T12:51:53.973Z,69.75
2023-04-06T12:54:21.110Z,70.13
2023-04-06T12:56:47.638Z,69.87
2023-04-06T12:59:14.248Z,69.42
2023-04-06T13:01:40.879Z,69.95
2023-04-06T13:04:07.518Z,70.33
2023-04-06T13:06:34.432Z,70.29
2023-04-06T13:09:01.151Z,71.04
2023-04-06T13:11:28.837Z,71.51
2023-04-06T13:13:55.713Z,71.52
2023-04-06T13:16:22.388Z,71.75
2023-04-06T13:18:49.186Z,71.39
2023-04-06T13:21:21.801Z,71.73
2023-04-06T13:23:48.444Z,70.87
2023-04-06T13:26:16.053Z,71.79
2023-04-06T13:28:43.179Z,71.34
2023-04-06T13:31:10.899Z,71.58
2023-04-06T13:33:37.877Z,71.94
2023-04-06T13:36:04.988Z,72.38
2023-04-06T13:38:31.568Z,72.47
2023-04-06T13:40:58.650Z,72.35
2023-04-06T13:43:27.334Z,72.87
2023-04-06T13:45:56.103Z,72.70
2023-04-06T13:48:23.015Z,73.45
2023-04-06T13:50:49.838Z,73.89
2023-04-06T13:53:16.466Z,73.01
2023-04-06T13:55:42.948Z,73.20
2023-04-06T13:58:09.780Z,73.77
2023-04-06T14:00:37.044Z,74.46
2023-04-06T14:03:05.081Z,73.69
2023-04-06T14:05:35.037Z,74.39
2023-04-06T14:08:03.460Z,75.04
2023-04-06T14:10:29.994Z,74.59
2023-04-06T14:12:57.065Z,74.53
2023-04-06T14:15:24.808Z,74.58
2023-04-06T14:17:52.323Z,74.57
2023-04-06T14:20:19.462Z,74.50
2023-04-06T14:22:46.215Z,74.28
2023-04-06T14:25:13.660Z,74.91
2023-04-06T14:27:40.542Z,75.08
2023-04-06T14:30:07.774Z,75.18
2023-04-06T14:32:34.359Z,75.24
2023-04-06T14:35:01.099Z,77.37
2023-04-06T14:37:27.921Z,77.90
2023-04-06T14:39:54.683Z,77.11
2023-04-06T14:42:21.505Z,77.14
2023-04-06T14:44:49.636Z,77.48
2023-04-06T14:47:21.526Z,78.31
2023-04-06T14:49:51.286Z,78.44
2023-04-06T14:52:17.833Z,78.57
2023-04-06T14:54:44.466Z,77.80
2023-04-06T14:57:11.049Z,77.64
2023-04-06T14:59:40.020Z,77.73
2023-04-06T15:02:07.493Z,77.48
2023-04-06T15:04:37.686Z,77.48
2023-04-06T15:07:05.019Z,77.37
2023-04-06T15:09:31.855Z,77.38
2023-04-06T15:11:58.711Z,78.63
2023-04-06T15:14:25.631Z,78.00
2023-04-06T15:16:52.309Z,78.07
2023-04-06T15:19:19.015Z,77.90
2023-04-06T15:21:45.592Z,78.08
2023-04-06T15:24:12.242Z,77.82
2023-04-06T15:26:39.119Z,77.92
2023-04-06T15:29:06.272Z,77.45
2023-04-06T15:34:21.124Z,77.08
2023-04-06T15:36:47.978Z,76.92
2023-04-06T15:39:14.678Z,76.54
2023-04-06T15:41:41.518Z,77.34
2023-04-06T15:44:08.042Z,77.09
2023-04-06T15:46:34.849Z,78.31
2023-04-06T15:49:01.519Z,77.90
2023-04-06T15:51:29.623Z,78.40
2023-04-06T15:53:57.072Z,78.08
2023-04-06T15:56:23.792Z,77.63
2023-04-06T15:58:50.549Z,77.97
2023-04-06T16:01:18.930Z,78.21
2023-04-06T16:03:46.381Z,78.74
2023-04-06T16:06:13.189Z,78.91
2023-04-06T16:08:40.560Z,78.40
2023-04-06T16:11:07.625Z,78.44
2023-04-06T16:13:34.326Z,79.21
2023-04-06T16:16:01.364Z,78.82
2023-04-06T16:18:28.226Z,78.55
2023-04-06T16:20:54.889Z,78.82
2023-04-06T16:23:23.078Z,80.04
2023-04-06T16:25:51.082Z,79.66
2023-04-06T16:28:17.893Z,80.16
2023-04-06T16:30:45.833Z,81.02
2023-04-06T16:33:13.840Z,81.92
2023-04-06T16:35:44.604Z,81.37
2023-04-06T16:38:11.634Z,82.33
2023-04-06T16:40:38.778Z,81.93
2023-04-06T16:43:05.527Z,81.62
2023-04-06T16:45:32.299Z,82.02
2023-04-06T16:47:59.208Z,81.94
2023-04-06T16:50:26.178Z,82.09
2023-04-06T16:52:52.740Z,81.46
2023-04-06T16:55:20.690Z,81.52
2023-04-06T16:57:49.221Z,82.10
2023-04-06T17:00:16.609Z,82.22
2023-04-06T17:02:47.304Z,82.87
2023-04-06T17:05:14.190Z,82.28
2023-04-06T17:07:40.854Z,83.17
2023-04-06T17:10:07.901Z,82.94
2023-04-06T17:12:34.394Z,82.73
2023-04-06T17:15:01.010Z,83.95
2023-04-06T17:17:27.705Z,83.66
2023-04-06T17:19:54.348Z,83.97
2023-04-06T17:22:21.387Z,83.93
2023-04-06T17:24:49.294Z,83.53
2023-04-06T17:27:16.262Z,83.78
2023-04-06T17:29:42.991Z,83.53
2023-04-06T17:32:11.666Z,84.03
2023-04-06T17:34:38.242Z,84.19
2023-04-06T17:37:05.110Z,83.89
2023-04-06T17:39:31.655Z,83.76
2023-04-06T17:41:59.794Z,84.11
2023-04-06T17:44:26.485Z,84.28
2023-04-06T17:46:53.155Z,84.00
2023-04-06T17:49:19.752Z,84.77
2023-04-06T17:51:46.419Z,84.41
2023-04-06T17:54:13.540Z,84.80
2023-04-06T17:56:40.596Z,84.88
2023-04-06T17:59:09.998Z,85.18
2023-04-06T18:01:37.523Z,85.00
2023-04-06T18:04:04.590Z,85.01
2023-04-06T18:06:31.781Z,85.11
2023-04-06T18:08:59.520Z,85.36
2023-04-06T18:11:27.482Z,85.49
2023-04-06T18:13:54.090Z,84.99
2023-04-06T18:16:21.669Z,85.09
2023-04-06T18:18:48.491Z,85.19
2023-04-06T18:21:15.520Z,85.07
2023-04-06T18:23:42.117Z,85.80
2023-04-06T18:26:16.731Z,85.83
2023-04-06T18:28:43.581Z,85.23
2023-04-06T18:31:10.130Z,85.94
2023-04-06T18:33:36.635Z,86.11
2023-04-06T18:36:04.258Z,86.37
2023-04-06T18:38:30.778Z,86.41
2023-04-06T18:40:57.784Z,85.83
2023-04-06T18:43:25.374Z,85.49
2023-04-06T18:45:51.885Z,85.68
2023-04-06T18:48:18.541Z,85.73
2023-04-06T18:50:57.515Z,85.27
2023-04-06T18:53:24.075Z,85.73
2023-04-06T18:55:51.007Z,86.43
2023-04-06T18:58:17.526Z,86.58
2023-04-06T19:00:44.035Z,86.57
2023-04-06T19:03:10.764Z,86.68
2023-04-06T19:05:37.395Z,86.80
2023-04-06T19:08:04.847Z,86.77
2023-04-06T19:10:31.655Z,86.66
2023-04-06T19:12:58.282Z,87.00
2023-04-06T19:15:24.881Z,87.07
2023-04-06T19:17:51.673Z,86.46
2023-04-06T19:20:18.378Z,86.50
2023-04-06T19:22:44.922Z,86.47
2023-04-06T19:25:11.967Z,86.38
2023-04-06T19:27:39.190Z,86.40
2023-04-06T19:30:06.692Z,87.01
2023-04-06T19:32:33.476Z,87.09
2023-04-06T19:35:01.498Z,87.28
2023-04-06T19:37:28.063Z,87.26
2023-04-06T19:39:54.583Z,86.93
2023-04-06T19:42:21.879Z,86.60
2023-04-06T19:44:48.889Z,87.41
2023-04-06T19:47:15.554Z,86.99
2023-04-06T19:49:42.367Z,86.95
2023-04-06T19:52:10.055Z,86.82
2023-04-06T19:54:38.229Z,86.60
2023-04-06T19:57:04.993Z,87.13
2023-04-06T19:59:31.638Z,87.21
2023-04-06T20:01:58.471Z,87.55
2023-04-06T20:04:25.409Z,87.70
2023-04-06T20:06:53.564Z,88.00
2023-04-06T20:09:21.715Z,88.23
2023-04-06T20:11:48.245Z,87.92
2023-04-06T20:14:15.752Z,88.17
2023-04-06T20:16:42.310Z,88.23
2023-04-06T20:19:09.389Z,88.75
2023-04-06T20:21:37.404Z,89.22
2023-04-06T20:24:05.772Z,89.30
2023-04-06T20:26:32.618Z,88.87
2023-04-06T20:28:59.183Z,89.44
2023-04-06T20:31:27.270Z,89.30
2023-04-06T20:33:54.351Z,89.37
2023-04-06T20:36:22.261Z,89.18
2023-04-06T20:38:48.857Z,89.26
2023-04-06T20:41:16.617Z,89.15
2023-04-06T20:43:43.329Z,89.23
2023-04-06T20:46:15.039Z,89.64
2023-04-06T20:48:41.938Z,89.94
2023-04-06T20:51:09.958Z,89.67
2023-04-06T20:53:36.670Z,89.78
2023-04-06T20:56:05.084Z,89.82
2023-04-06T20:58:31.776Z,89.82
2023-04-06T21:00:58.430Z,89.95
2023-04-06T21:03:25.985Z,90.15
2023-04-06T21:05:54.036Z,90.07
2023-04-06T21:08:20.806Z,89.98
2023-04-06T21:10:47.521Z,90.54
2023-04-06T21:13:14.200Z,90.03
2023-04-06T21:15:41.286Z,90.00
2023-04-06T21:18:08.267Z,89.82
2023-04-06T21:20:35.561Z,90.10
2023-04-06T21:23:03.376Z,90.45
2023-04-06T21:25:30.354Z,90.47
2023-04-06T21:27:57.002Z,90.61
2023-04-06T21:30:23.656Z,90.55
2023-04-06T21:32:50.462Z,90.66
2023-04-06T21:35:17.106Z,90.61
2023-04-06T21:37:43.657Z,90.58
2023-04-06T21:40:10.664Z,90.71
2023-04-06T21:42:37.175Z,90.52
2023-04-06T21:45:04.655Z,90.19
2023-04-06T21:47:31.283Z,90.62
2023-04-06T21:49:57.981Z,90.42
2023-04-06T21:52:24.603Z,90.20
2023-04-06T21:54:51.169Z,90.18
2023-04-06T21:57:18.092Z,90.01
2023-04-06T21:59:44.673Z,90.28
2023-04-06T22:02:11.357Z,90.16
2023-04-06T22:04:38.032Z,90.73
2023-04-06T22:07:04.650Z,90.79
2023-04-06T22:09:31.845Z,90.58
2023-04-06T22:11:58.622Z,90.48
2023-04-06T22:14:25.924Z,90.35
2023-04-06T22:16:52.445Z,90.53
2023-04-06T22:19:18.948Z,90.28
2023-04-06T22:21:45.729Z,89.97
2023-04-06T22:24:12.295Z,90.14
2023-04-06T22:26:38.926Z,90.34
2023-04-06T22:29:05.663Z,90.39
2023-04-06T22:31:32.356Z,90.24
2023-04-06T22:33:58.956Z,90.12
2023-04-06T22:36:27.057Z,90.07
2023-04-06T22:38:53.812Z,90.50
2023-04-06T22:41:21.042Z,90.65
2023-04-06T22:43:47.575Z,90.90
2023-04-06T22:46:14.041Z,90.74
2023-04-06T22:48:40.556Z,91.09
2023-04-06T22:51:07.058Z,90.87
2023-04-06T22:53:33.553Z,91.00
2023-04-06T22:56:00.713Z,90.80
2023-04-06T22:58:27.254Z,90.75
2023-04-06T23:00:53.889Z,91.01
2023-04-06T23:03:20.624Z,90.95
2023-04-06T23:05:47.776Z,91.08
2023-04-06T23:08:14.509Z,91.14
2023-04-06T23:10:42.084Z,91.10
2023-04-06T23:13:09.529Z,90.88
2023-04-06T23:15:36.317Z,90.80
2023-04-06T23:18:04.456Z,90.57
2023-04-06T23:20:31.096Z,90.82
2023-04-06T23:22:57.712Z,90.92
2023-04-06T23:25:24.216Z,90.85
2023-04-06T23:27:52.344Z,91.12
2023-04-06T23:30:18.888Z,90.75
2023-04-06T23:32:45.830Z,91.30
2023-04-06T23:35:12.680Z,91.67
2023-04-06T23:37:39.325Z,91.49
2023-04-06T23:40:06.727Z,91.28
2023-04-06T23:42:33.379Z,91.42
2023-04-06T23:44:59.984Z,91.13
2023-04-06T23:47:26.621Z,91.22
2023-04-06T23:49:53.280Z,91.48
2023-04-06T23:52:20.505Z,91.17
2023-04-06T23:54:47.013Z,91.51
2023-04-06T23:57:13.571Z,91.61
2023-04-06T23:59:40.383Z,91.26
